Time;durP1;ratioP1;P1;durP2;ratioP2;P2;SDS_P1;SDS_P2;PMS_P1;PMS_P2;Temp;Humidity;BMP_temperature;BMP_pressure;BME280_temperature;BME280_humidity;BME280_pressure;Samples;Min_cycle;Max_cycle;Signal;HPM_P1;HPM_P2
2022/03/29 00:00:58;;;;;;;9.15;8.35;;;10.40;92.40;;;;;;5047099;28;20872;-85
2022/03/29 00:03:23;;;;;;;9.70;8.55;;;10.30;93.00;;;;;;5064356;28;20381;-85
2022/03/29 00:05:49;;;;;;;10.45;8.18;;;10.30;93.50;;;;;;5053847;28;20382;-85
2022/03/29 00:08:15;;;;;;;9.30;8.40;;;10.30;92.80;;;;;;5064120;28;20382;-85
2022/03/29 00:10:40;;;;;;;9.40;8.50;;;10.40;93.20;;;;;;5063345;28;20445;-84
2022/03/29 00:13:07;;;;;;;9.45;8.18;;;10.30;93.10;;;;;;5062075;28;20896;-85
2022/03/29 00:15:33;;;;;;;8.32;7.53;;;10.80;93.30;;;;;;5050743;28;20448;-84
2022/03/29 00:17:59;;;;;;;10.35;8.00;;;10.30;94.20;;;;;;5064789;28;20416;-85
2022/03/29 00:20:25;;;;;;;8.80;7.95;;;10.10;93.70;;;;;;5065814;28;20749;-85
2022/03/29 00:22:50;;;;;;;8.93;8.03;;;10.00;94.20;;;;;;5067770;28;20453;-85
2022/03/29 00:25:17;;;;;;;8.67;7.83;;;9.90;94.00;;;;;;5069671;28;20385;-85
2022/03/29 00:27:43;;;;;;;9.40;8.45;;;9.90;93.90;;;;;;5069512;28;20385;-85
2022/03/29 00:30:11;;;;;;;9.70;8.70;;;10.60;94.00;;;;;;5069266;28;20456;-85
2022/03/29 00:32:40;;;;;;;10.60;8.80;;;9.90;93.90;;;;;;5051190;28;20405;-85
2022/03/29 00:35:06;;;;;;;9.52;8.63;;;10.10;94.00;;;;;;5051329;28;20385;-85
2022/03/29 00:37:33;;;;;;;9.17;8.27;;;9.70;93.70;;;;;;5060942;28;20438;-84
2022/03/29 00:39:58;;;;;;;9.40;8.33;;;9.80;94.00;;;;;;5069576;28;20402;-85
2022/03/29 00:42:24;;;;;;;8.73;7.83;;;9.80;94.30;;;;;;5068654;28;20389;-86
2022/03/29 00:44:50;;;;;;;9.43;8.07;;;9.70;94.60;;;;;;5068958;28;20377;-85
2022/03/29 00:47:15;;;;;;;8.73;7.68;;;9.80;95.00;;;;;;5068091;28;20709;-85
2022/03/29 00:49:41;;;;;;;9.20;8.35;;;9.80;94.90;;;;;;5068735;28;20453;-85
2022/03/29 00:52:08;;;;;;;9.15;8.30;;;9.70;94.60;;;;;;5068382;28;20389;-85
2022/03/29 00:54:38;;;;;;;9.82;8.85;;;9.70;94.20;;;;;;5050341;28;20420;-85
2022/03/29 00:57:05;;;;;;;8.88;8.10;;;9.60;94.00;;;;;;5078472;28;20378;-84
2022/03/29 00:59:31;;;;;;;9.23;8.33;;;9.60;94.50;;;;;;5071639;28;20409;-85
2022/03/29 01:01:57;;;;;;;9.10;8.13;;;9.70;94.40;;;;;;5068212;28;20756;-85
2022/03/29 01:04:27;;;;;;;8.93;8.02;;;9.60;95.20;;;;;;5066302;28;20412;-85
2022/03/29 01:06:57;;;;;;;8.90;8.00;;;9.60;94.80;;;;;;5032298;28;20382;-85
2022/03/29 01:09:23;;;;;;;8.90;7.82;;;9.50;94.70;;;;;;5066187;28;20390;-85
2022/03/29 01:11:49;;;;;;;9.38;8.38;;;9.40;95.40;;;;;;5066932;28;20396;-84
2022/03/29 01:14:15;;;;;;;9.32;8.48;;;9.50;94.70;;;;;;5066376;28;20392;-85
2022/03/29 01:19:25;;;;;;;9.93;8.93;;;9.40;94.90;;;;;;5056323;28;20418;-85
2022/03/29 01:21:59;;;;;;;9.80;8.73;;;9.40;94.60;;;;;;5065421;28;20374;-85
2022/03/29 01:24:25;;;;;;;9.10;8.20;;;9.50;94.70;;;;;;5048585;28;20386;-85
2022/03/29 01:26:53;;;;;;;9.02;8.18;;;9.50;94.80;;;;;;5064658;28;20380;-84
2022/03/29 01:29:20;;;;;;;8.90;8.00;;;9.50;95.20;;;;;;5063995;28;20430;-85
2022/03/29 01:31:48;;;;;;;10.00;8.30;;;9.50;95.80;;;;;;5065765;28;20420;-84
2022/03/29 01:34:14;;;;;;;9.32;8.43;;;9.50;95.10;;;;;;5065051;28;20389;-85
2022/03/29 01:36:40;;;;;;;9.80;8.80;;;9.40;95.80;;;;;;5056867;28;20383;-85
2022/03/29 01:39:05;;;;;;;9.48;8.55;;;9.30;95.10;;;;;;5065651;28;20433;-84
2022/03/29 01:41:31;;;;;;;10.23;8.95;;;9.30;94.50;;;;;;5066186;28;20381;-85
2022/03/29 01:43:57;;;;;;;9.48;8.52;;;9.50;95.00;;;;;;5066070;28;20385;-85
2022/03/29 01:46:23;;;;;;;9.93;8.80;;;9.30;94.80;;;;;;5066305;28;20389;-84
2022/03/29 01:48:49;;;;;;;9.53;8.60;;;9.90;94.90;;;;;;5048343;28;20412;-84
2022/03/29 01:51:15;;;;;;;8.60;7.80;;;9.20;95.10;;;;;;5065460;28;20393;-85
2022/03/29 01:53:41;;;;;;;9.45;8.48;;;9.20;95.60;;;;;;5066278;28;20397;-84
2022/03/29 01:56:07;;;;;;;9.07;8.27;;;9.30;96.00;;;;;;5064630;28;20385;-84
2022/03/29 01:58:32;;;;;;;9.03;8.13;;;9.20;96.60;;;;;;5051593;28;20411;-84
2022/03/29 02:00:59;;;;;;;9.47;8.50;;;9.60;96.00;;;;;;5061792;28;20431;-85
2022/03/29 02:03:25;;;;;;;9.50;8.50;;;9.00;96.40;;;;;;5045677;28;20398;-84
2022/03/29 02:05:50;;;;;;;9.27;8.38;;;9.00;96.00;;;;;;5062871;28;20427;-85
2022/03/29 02:08:16;;;;;;;9.17;8.27;;;9.00;96.20;;;;;;5062773;28;20400;-84
2022/03/29 02:10:42;;;;;;;8.73;7.93;;;9.00;96.60;;;;;;5071950;28;20856;-85
2022/03/29 02:13:11;;;;;;;14.90;9.30;;;9.00;95.90;;;;;;5045959;28;20423;-85
2022/03/29 02:15:40;;;;;;;9.80;8.93;;;9.10;95.50;;;;;;5064484;28;20514;-84
2022/03/29 02:18:07;;;;;;;9.95;8.75;;;9.00;95.50;;;;;;5075610;28;20396;-84
2022/03/29 02:20:32;;;;;;;10.30;8.85;;;8.70;96.70;;;;;;5064354;28;20408;-85
2022/03/29 02:23:06;;;;;;;11.38;8.95;;;9.20;97.20;;;;;;5060442;28;20749;-85
2022/03/29 02:25:33;;;;;;;10.80;8.98;;;8.20;96.90;;;;;;5063655;28;20747;-84
2022/03/29 02:27:59;;;;;;;9.85;8.82;;;7.90;97.50;;;;;;5063930;28;20385;-84
2022/03/29 02:30:24;;;;;;;10.15;9.05;;;9.00;97.40;;;;;;5063115;28;20465;-85
2022/03/29 02:32:50;;;;;;;10.93;8.80;;;8.40;97.20;;;;;;5063241;28;20895;-85
2022/03/29 02:35:16;;;;;;;9.50;8.50;;;8.50;97.10;;;;;;5063368;28;20818;-84
2022/03/29 02:37:42;;;;;;;9.95;9.05;;;8.60;96.80;;;;;;5054621;28;20439;-85
2022/03/29 02:40:09;;;;;;;10.95;8.98;;;8.70;96.80;;;;;;5063059;28;20389;-85
2022/03/29 02:42:48;;;;;;;10.05;8.43;;;8.60;97.10;;;;;;5063367;28;20443;-84
2022/03/29 02:45:18;;;;;;;10.45;9.05;;;8.60;97.40;;;;;;5066190;28;20415;-85
2022/03/29 02:47:46;;;;;;;9.40;8.13;;;8.60;97.40;;;;;;5063816;28;20400;-85
2022/03/29 02:50:12;;;;;;;9.75;8.65;;;8.50;97.20;;;;;;5064495;28;20385;-84
2022/03/29 02:53:01;;;;;;;9.30;8.40;;;8.50;97.40;;;;;;5070480;28;20399;-84
2022/03/29 02:55:29;;;;;;;10.38;8.70;;;8.60;97.50;;;;;;5071309;28;20382;-85
2022/03/29 02:57:56;;;;;;;8.88;8.15;;;8.50;97.30;;;;;;5067775;28;20396;-85
2022/03/29 03:00:22;;;;;;;9.20;7.97;;;8.50;97.90;;;;;;5067240;28;20470;-85
2022/03/29 03:02:54;;;;;;;9.90;8.90;;;8.50;98.20;;;;;;5066873;28;20443;-84
2022/03/29 03:05:20;;;;;;;9.65;8.57;;;8.30;97.70;;;;;;5049564;28;20386;-85
2022/03/29 03:07:47;;;;;;;11.38;8.88;;;8.50;97.70;;;;;;5065317;28;20860;-84
2022/03/29 03:10:14;;;;;;;10.23;8.30;;;8.40;97.70;;;;;;5065475;28;20389;-85
2022/03/29 03:12:44;;;;;;;9.83;8.50;;;8.50;97.40;;;;;;5064901;28;20389;-85
2022/03/29 03:15:14;;;;;;;8.63;7.77;;;8.60;97.30;;;;;;5064102;28;20498;-85
2022/03/29 03:17:40;;;;;;;8.73;7.82;;;8.40;97.50;;;;;;5043072;28;20455;-84
2022/03/29 03:20:07;;;;;;;9.53;8.53;;;8.40;97.60;;;;;;5047257;28;20420;-84
2022/03/29 03:22:35;;;;;;;9.60;8.60;;;8.40;97.70;;;;;;5065872;28;20447;-84
2022/03/29 03:25:01;;;;;;;10.00;8.32;;;8.40;97.90;;;;;;5065950;28;20388;-85
2022/03/29 03:27:27;;;;;;;13.70;8.18;;;8.10;98.30;;;;;;5065885;28;20732;-84
2022/03/29 03:29:52;;;;;;;9.70;8.67;;;8.00;99.10;;;;;;5062258;28;20385;-84
2022/03/29 03:32:18;;;;;;;9.18;8.30;;;8.10;98.40;;;;;;5064595;28;20408;-84
2022/03/29 03:34:43;;;;;;;10.68;8.43;;;8.10;98.90;;;;;;5064651;28;20377;-84
2022/03/29 03:37:09;;;;;;;9.20;8.30;;;8.00;98.80;;;;;;5055996;28;20455;-85
2022/03/29 03:39:37;;;;;;;9.55;8.65;;;7.90;99.00;;;;;;5063064;28;20439;-84
2022/03/29 03:42:09;;;;;;;9.73;8.73;;;7.90;99.00;;;;;;5064470;28;20431;-85
2022/03/29 03:44:36;;;;;;;9.35;8.48;;;7.90;99.00;;;;;;5030164;28;20390;-85
2022/03/29 03:47:03;;;;;;;9.55;8.45;;;8.00;99.10;;;;;;5046000;28;20381;-85
2022/03/29 03:49:28;;;;;;;10.20;8.38;;;8.00;99.00;;;;;;5063855;28;20460;-85
2022/03/29 03:51:54;;;;;;;9.45;8.50;;;7.90;98.90;;;;;;5064661;28;20439;-85
2022/03/29 03:54:21;;;;;;;11.13;8.93;;;7.90;99.00;;;;;;5064134;28;20410;-85
2022/03/29 03:56:47;;;;;;;9.93;8.77;;;7.90;99.10;;;;;;5065217;28;20390;-84
2022/03/29 03:59:13;;;;;;;10.20;9.20;;;7.90;98.50;;;;;;5067868;28;20428;-84
2022/03/29 04:01:39;;;;;;;12.10;8.80;;;7.90;98.70;;;;;;5064928;28;20769;-85
2022/03/29 04:04:04;;;;;;;9.80;8.90;;;8.00;98.60;;;;;;5064540;28;20381;-84
2022/03/29 04:06:30;;;;;;;9.43;8.50;;;8.80;98.30;;;;;;5061856;28;20452;-85
2022/03/29 04:08:55;;;;;;;9.20;8.40;;;7.90;98.20;;;;;;5066392;28;20786;-84
2022/03/29 04:11:21;;;;;;;10.13;8.88;;;8.00;97.90;;;;;;5048390;28;20507;-85
2022/03/29 04:13:47;;;;;;;9.63;8.70;;;8.00;97.80;;;;;;5071014;28;20441;-84
2022/03/29 04:16:13;;;;;;;10.43;9.35;;;8.10;97.70;;;;;;5061786;28;20400;-85
2022/03/29 04:18:38;;;;;;;10.63;9.00;;;8.10;98.10;;;;;;5034315;28;20440;-84
2022/03/29 04:21:08;;;;;;;10.15;8.80;;;7.90;98.60;;;;;;5079316;28;20862;-84
2022/03/29 04:23:37;;;;;;;9.85;8.95;;;8.00;98.90;;;;;;5067746;28;20391;-85
2022/03/29 04:26:04;;;;;;;10.02;9.02;;;7.90;98.80;;;;;;5068694;28;21068;-85
2022/03/29 04:28:31;;;;;;;12.10;10.27;;;7.90;98.80;;;;;;5067842;28;20441;-84
2022/03/29 04:30:59;;;;;;;10.75;9.20;;;7.90;98.20;;;;;;5066684;28;20876;-84
2022/03/29 04:33:25;;;;;;;10.65;9.60;;;8.00;98.20;;;;;;5065946;28;20468;-85
2022/03/29 04:35:51;;;;;;;11.30;9.82;;;7.90;98.60;;;;;;5064246;28;20396;-85
2022/03/29 04:38:17;;;;;;;10.95;9.88;;;7.90;98.70;;;;;;5058120;28;20413;-83
2022/03/29 04:40:42;;;;;;;13.43;9.53;;;8.00;98.80;;;;;;5054200;28;20913;-84
2022/03/29 04:43:08;;;;;;;10.10;9.10;;;7.90;98.80;;;;;;5066066;28;20385;-84
2022/03/29 04:45:34;;;;;;;12.03;9.80;;;8.10;98.40;;;;;;5060993;28;20432;-84
2022/03/29 04:47:59;;;;;;;10.77;9.73;;;7.80;98.00;;;;;;5070558;28;20472;-85
2022/03/29 04:50:26;;;;;;;10.77;9.60;;;7.80;98.30;;;;;;5063075;28;20387;-85
2022/03/29 04:52:51;;;;;;;10.93;9.85;;;8.20;98.70;;;;;;5069299;28;20381;-85
2022/03/29 04:55:18;;;;;;;11.80;9.57;;;7.80;98.30;;;;;;5068378;28;20890;-86
2022/03/29 04:57:47;;;;;;;10.38;9.38;;;7.80;98.40;;;;;;5064875;28;20899;-85
2022/03/29 05:00:14;;;;;;;12.82;9.45;;;7.80;99.10;;;;;;5067419;28;20386;-85
2022/03/29 05:02:44;;;;;;;11.32;9.10;;;7.80;99.40;;;;;;5050186;28;20397;-84
2022/03/29 05:05:11;;;;;;;12.48;9.55;;;8.20;99.90;;;;;;5068691;28;20377;-85
2022/03/29 05:07:37;;;;;;;11.00;9.45;;;7.90;99.50;;;;;;5050386;28;20377;-85
2022/03/29 05:10:08;;;;;;;10.40;9.40;;;7.80;99.40;;;;;;5046976;28;20386;-85
2022/03/29 05:12:47;;;;;;;13.05;9.05;;;7.90;99.00;;;;;;5068299;28;20854;-84
2022/03/29 05:15:16;;;;;;;11.40;9.10;;;7.70;99.40;;;;;;5066167;28;20401;-85
2022/03/29 05:17:42;;;;;;;11.70;9.43;;;7.80;99.30;;;;;;5064766;28;20856;-85
2022/03/29 05:20:09;;;;;;;12.45;9.57;;;8.20;99.50;;;;;;5048467;28;20405;-84
2022/03/29 05:22:51;;;;;;;10.70;9.45;;;7.80;99.30;;;;;;5064294;28;20377;-85
2022/03/29 05:25:19;;;;;;;10.93;9.65;;;8.20;99.90;;;;;;5056056;28;20972;-85
2022/03/29 05:27:46;;;;;;;10.93;9.27;;;7.70;99.90;;;;;;5052147;28;20425;-83
2022/03/29 05:30:13;;;;;;;9.80;8.80;;;7.60;99.80;;;;;;5064730;28;20385;-85
2022/03/29 05:32:39;;;;;;;11.45;10.00;;;7.60;99.90;;;;;;5062954;28;20413;-85
2022/03/29 05:35:07;;;;;;;11.03;9.23;;;7.60;99.50;;;;;;5063279;28;20386;-85
2022/03/29 05:37:34;;;;;;;11.00;9.77;;;7.60;99.40;;;;;;5055426;28;20390;-85
2022/03/29 05:40:00;;;;;;;10.27;9.27;;;7.60;99.10;;;;;;5064175;28;20472;-85
2022/03/29 05:42:26;;;;;;;10.43;9.33;;;7.70;98.70;;;;;;5051883;28;20436;-85
2022/03/29 05:44:51;;;;;;;12.40;9.68;;;7.90;99.10;;;;;;5064056;28;20377;-85
2022/03/29 05:50:01;;;;;;;13.93;10.70;;;7.80;98.90;;;;;;5065295;28;20408;-85
2022/03/29 05:52:29;;;;;;;12.50;10.43;;;7.70;98.90;;;;;;5056877;28;20771;-83
2022/03/29 05:54:56;;;;;;;11.20;10.00;;;7.70;99.40;;;;;;5051742;28;20393;-85
2022/03/29 05:57:23;;;;;;;11.82;10.32;;;7.80;99.10;;;;;;5063679;28;20385;-84
2022/03/29 05:59:48;;;;;;;11.50;10.15;;;7.80;98.60;;;;;;5060691;28;20466;-85
2022/03/29 06:02:14;;;;;;;11.07;9.95;;;7.70;98.40;;;;;;5046081;28;20443;-85
2022/03/29 06:04:40;;;;;;;13.50;10.57;;;8.30;99.20;;;;;;5048479;28;20440;-84
2022/03/29 06:07:06;;;;;;;11.70;10.20;;;7.30;98.50;;;;;;5043723;28;20997;-85
2022/03/29 06:09:35;;;;;;;11.05;9.93;;;7.30;99.00;;;;;;5059506;28;20463;-84
2022/03/29 06:12:02;;;;;;;15.05;10.27;;;7.50;99.00;;;;;;5052394;28;20391;-83
2022/03/29 06:14:28;;;;;;;13.18;9.90;;;7.60;98.90;;;;;;5061577;28;20492;-85
2022/03/29 06:16:57;;;;;;;12.05;10.13;;;7.80;99.00;;;;;;5058377;28;20387;-85
2022/03/29 06:19:22;;;;;;;11.37;9.93;;;7.90;99.40;;;;;;5048317;28;20408;-85
2022/03/29 06:21:51;;;;;;;11.80;10.60;;;8.60;99.30;;;;;;5050203;28;20815;-85
2022/03/29 06:24:17;;;;;;;11.52;10.32;;;8.00;99.30;;;;;;5049565;28;20395;-84
2022/03/29 06:26:43;;;;;;;13.90;10.75;;;7.90;99.30;;;;;;5044149;28;20450;-85
2022/03/29 06:29:12;;;;;;;13.82;10.93;;;8.00;98.60;;;;;;5044047;28;20387;-85
2022/03/29 06:31:38;;;;;;;14.75;10.93;;;7.90;98.70;;;;;;5058378;28;20420;-85
2022/03/29 06:34:05;;;;;;;13.27;10.97;;;7.70;98.80;;;;;;5062581;28;20381;-84
2022/03/29 06:36:31;;;;;;;13.13;10.52;;;7.60;99.90;;;;;;5055204;28;20387;-85
2022/03/29 06:38:56;;;;;;;14.13;11.02;;;7.70;99.40;;;;;;5055778;28;20826;-85
2022/03/29 06:41:25;;;;;;;12.83;10.60;;;7.90;99.20;;;;;;5043568;28;20383;-85
2022/03/29 06:43:51;;;;;;;13.10;11.73;;;8.10;99.40;;;;;;5043064;28;20375;-85
2022/03/29 06:46:17;;;;;;;12.00;10.70;;;8.60;98.60;;;;;;5023345;28;20875;-85
2022/03/29 06:48:44;;;;;;;14.88;10.63;;;8.70;97.70;;;;;;5046441;28;20390;-85
2022/03/29 06:51:12;;;;;;;17.48;10.45;;;8.50;97.80;;;;;;5044809;28;20395;-85
2022/03/29 06:53:39;;;;;;;12.80;10.68;;;8.50;98.50;;;;;;5035377;28;20396;-84
2022/03/29 06:56:07;;;;;;;13.50;11.57;;;8.60;98.10;;;;;;5045355;28;20540;-86
2022/03/29 06:58:36;;;;;;;13.30;11.27;;;8.80;98.00;;;;;;5060535;28;21953;-85
2022/03/29 07:01:03;;;;;;;14.73;11.15;;;9.30;97.70;;;;;;5047573;28;20390;-84
2022/03/29 07:03:30;;;;;;;14.05;11.57;;;8.70;98.20;;;;;;5062075;28;20385;-85
2022/03/29 07:05:56;;;;;;;13.70;11.00;;;8.80;98.10;;;;;;5058383;28;20458;-85
2022/03/29 07:08:22;;;;;;;14.73;10.80;;;8.80;98.40;;;;;;5051835;28;20408;-85
2022/03/29 07:13:36;;;;;;;11.77;10.57;;;8.80;98.60;;;;;;5061858;28;20376;-86
2022/03/29 07:16:01;;;;;;;12.00;10.63;;;8.90;99.00;;;;;;5042551;28;20462;-85
2022/03/29 07:18:27;;;;;;;12.00;10.57;;;9.10;97.20;;;;;;5066406;28;20435;-86
2022/03/29 07:20:53;;;;;;;14.65;10.93;;;9.60;97.30;;;;;;5071643;28;20415;-86
2022/03/29 07:23:18;;;;;;;14.80;11.90;;;9.20;97.40;;;;;;5032855;28;20398;-85
2022/03/29 07:25:44;;;;;;;13.73;11.47;;;9.20;97.00;;;;;;5049435;28;20388;-85
2022/03/29 07:28:11;;;;;;;22.20;12.00;;;9.20;96.50;;;;;;5031611;28;20402;-85
2022/03/29 07:30:41;;;;;;;26.33;12.70;;;9.40;97.20;;;;;;5062042;28;20393;-85
2022/03/29 07:33:07;;;;;;;17.27;12.73;;;9.30;97.80;;;;;;5064817;28;20393;-86
2022/03/29 07:35:33;;;;;;;17.08;11.88;;;9.50;97.30;;;;;;5067644;28;20430;-85
2022/03/29 07:37:59;;;;;;;15.93;11.50;;;9.40;96.80;;;;;;5058989;28;20377;-86
2022/03/29 07:40:33;;;;;;;15.73;12.20;;;9.40;96.90;;;;;;5067564;28;20445;-86
2022/03/29 07:42:58;;;;;;;15.90;12.82;;;9.40;96.70;;;;;;5067935;28;20783;-86
2022/03/29 07:45:24;;;;;;;19.13;12.20;;;9.50;96.60;;;;;;5068640;28;20385;-86
2022/03/29 07:47:52;;;;;;;17.80;13.10;;;9.60;96.90;;;;;;5077414;28;20381;-86
2022/03/29 07:50:18;;;;;;;17.90;14.00;;;9.60;97.00;;;;;;5077526;28;20382;-85
2022/03/29 07:52:44;;;;;;;17.00;13.88;;;9.60;96.60;;;;;;5071140;28;20395;-86
2022/03/29 07:55:12;;;;;;;22.07;15.10;;;9.60;97.20;;;;;;5070118;28;20822;-87
2022/03/29 07:57:38;;;;;;;23.63;14.88;;;9.40;97.40;;;;;;5051883;28;20412;-86
2022/03/29 08:00:31;;;;;;;20.75;13.90;;;9.60;97.30;;;;;;5069194;28;20417;-86
2022/03/29 08:02:52;;;;;;;19.65;13.82;;;9.50;97.60;;;;;;5050663;28;20887;-87
2022/03/29 08:05:19;;;;;;;20.25;15.05;;;9.70;97.50;;;;;;5068694;28;20382;-86
2022/03/29 08:07:45;;;;;;;26.95;14.82;;;9.80;97.30;;;;;;5070872;28;20368;-86
2022/03/29 08:10:11;;;;;;;20.17;14.23;;;9.90;97.20;;;;;;5080331;28;20386;-87
2022/03/29 08:12:37;;;;;;;21.17;14.73;;;10.20;97.20;;;;;;5064524;28;20391;-86
2022/03/29 08:15:05;;;;;;;22.80;14.52;;;10.20;97.40;;;;;;5069079;28;20799;-86
2022/03/29 08:17:32;;;;;;;18.52;13.70;;;10.20;97.30;;;;;;5068847;28;20373;-86
2022/03/29 08:19:57;;;;;;;22.23;14.80;;;10.50;97.00;;;;;;5066511;28;20409;-87
2022/03/29 08:22:23;;;;;;;17.57;13.60;;;10.80;97.00;;;;;;5067565;28;20385;-86
2022/03/29 08:24:49;;;;;;;17.70;14.37;;;10.90;97.10;;;;;;5065975;28;20388;-86
2022/03/29 08:27:15;;;;;;;20.67;13.75;;;10.60;96.90;;;;;;5068229;28;20401;-85
2022/03/29 08:29:40;;;;;;;15.73;14.03;;;10.70;97.00;;;;;;5068127;28;20447;-85
2022/03/29 08:32:07;;;;;;;19.77;14.77;;;10.70;97.20;;;;;;5062664;28;20407;-85
2022/03/29 08:34:33;;;;;;;17.02;14.63;;;10.80;96.60;;;;;;5056396;28;20377;-86
2022/03/29 08:36:58;;;;;;;18.50;14.23;;;10.90;96.70;;;;;;5056667;28;20392;-86
2022/03/29 08:39:24;;;;;;;18.53;14.90;;;11.10;97.30;;;;;;5070185;28;20416;-86
2022/03/29 08:41:58;;;;;;;19.57;14.20;;;11.60;96.80;;;;;;5068895;28;20385;-85
2022/03/29 08:44:26;;;;;;;19.50;14.30;;;11.20;97.00;;;;;;5062037;28;20399;-85
2022/03/29 08:46:52;;;;;;;18.05;13.70;;;11.30;96.80;;;;;;5050051;28;20388;-85
2022/03/29 08:49:19;;;;;;;19.40;13.98;;;11.30;96.40;;;;;;5068977;28;20385;-85
2022/03/29 08:51:46;;;;;;;16.80;13.90;;;11.40;96.30;;;;;;5050939;28;20443;-85
2022/03/29 08:54:12;;;;;;;18.70;14.65;;;11.50;96.60;;;;;;5067619;28;20389;-85
2022/03/29 08:56:39;;;;;;;18.63;14.23;;;11.60;96.10;;;;;;5057243;28;20385;-86
2022/03/29 08:59:05;;;;;;;16.63;14.30;;;11.60;96.30;;;;;;5067061;28;20435;-85
2022/03/29 09:01:31;;;;;;;19.65;14.50;;;11.80;96.30;;;;;;5066757;28;20441;-85
2022/03/29 09:04:14;;;;;;;19.40;14.85;;;11.80;95.80;;;;;;5047673;28;20769;-85
2022/03/29 09:06:58;;;;;;;16.30;13.40;;;11.90;95.80;;;;;;5065381;28;20381;-85
2022/03/29 09:09:35;;;;;;;17.67;14.38;;;12.00;95.20;;;;;;5067298;28;20420;-85
2022/03/29 09:12:18;;;;;;;19.02;15.27;;;12.10;95.30;;;;;;5071631;28;20386;-85
2022/03/29 09:14:58;;;;;;;24.13;14.85;;;12.20;95.20;;;;;;5053738;28;20405;-85
2022/03/29 09:17:32;;;;;;;23.75;15.48;;;12.20;95.10;;;;;;5080249;28;20916;-85
2022/03/29 09:20:10;;;;;;;19.45;15.07;;;12.40;95.60;;;;;;5053897;28;20900;-85
2022/03/29 09:22:50;;;;;;;22.23;16.03;;;12.50;94.70;;;;;;5071420;28;20378;-85
2022/03/29 09:25:18;;;;;;;23.60;15.50;;;12.60;94.60;;;;;;5054055;28;20415;-85
2022/03/29 09:27:54;;;;;;;22.90;16.40;;;12.70;94.80;;;;;;5081048;28;20927;-85
2022/03/29 09:30:21;;;;;;;23.75;16.38;;;12.80;94.60;;;;;;5072997;28;20380;-85
2022/03/29 09:32:58;;;;;;;21.73;15.40;;;12.80;94.60;;;;;;5037124;28;20409;-85
2022/03/29 09:35:24;;;;;;;20.30;15.43;;;12.90;94.80;;;;;;5071896;28;20538;-87
2022/03/29 09:37:50;;;;;;;21.75;14.95;;;13.00;94.70;;;;;;5063296;28;20436;-84
2022/03/29 09:40:16;;;;;;;20.83;13.95;;;13.10;94.50;;;;;;5063717;28;20406;-85
2022/03/29 09:42:42;;;;;;;18.83;14.13;;;13.40;93.10;;;;;;5073938;28;20433;-85
2022/03/29 09:45:09;;;;;;;15.43;13.70;;;13.60;92.90;;;;;;5077682;28;20402;-84
2022/03/29 09:47:35;;;;;;;17.58;13.68;;;13.80;94.20;;;;;;5070059;28;20882;-85
2022/03/29 09:50:09;;;;;;;15.98;13.10;;;14.10;93.20;;;;;;5038245;28;20395;-87
2022/03/29 09:52:40;;;;;;;16.13;13.38;;;14.20;91.70;;;;;;5040983;28;20402;-85
2022/03/29 09:55:17;;;;;;;15.17;13.57;;;14.20;92.00;;;;;;5060775;28;20478;-84
2022/03/29 09:57:50;;;;;;;22.13;14.68;;;14.30;92.50;;;;;;5050596;28;20482;-86
2022/03/29 10:00:32;;;;;;;17.33;14.07;;;14.60;92.30;;;;;;5061226;28;20414;-85
2022/03/29 10:02:59;;;;;;;19.60;15.10;;;14.70;92.20;;;;;;5048719;28;20421;-86
2022/03/29 10:05:26;;;;;;;26.42;16.25;;;14.70;91.80;;;;;;5072542;28;20370;-85
2022/03/29 10:09:25;;;;;;;23.15;14.93;;;14.60;92.10;;;;;;5070562;28;20388;-85
2022/03/29 10:10:47;;;;;;;21.40;15.40;;;14.70;91.90;;;;;;5080863;28;20394;-86
2022/03/29 10:13:14;;;;;;;19.77;14.68;;;15.00;92.00;;;;;;5074547;28;20368;-86
2022/03/29 10:15:41;;;;;;;23.42;14.65;;;15.10;91.70;;;;;;5083389;28;20382;-85
2022/03/29 10:18:07;;;;;;;20.17;15.45;;;15.20;91.50;;;;;;5071578;28;20460;-85
2022/03/29 10:20:34;;;;;;;19.02;14.95;;;15.20;91.10;;;;;;5059394;28;20437;-86
2022/03/29 10:23:01;;;;;;;18.23;14.00;;;15.30;91.40;;;;;;5062568;28;20385;-85
2022/03/29 10:25:27;;;;;;;15.68;13.60;;;15.50;91.80;;;;;;5052576;28;20381;-85
2022/03/29 10:27:54;;;;;;;16.02;13.30;;;15.60;90.00;;;;;;5069464;28;20396;-85
2022/03/29 10:30:39;;;;;;;17.27;13.90;;;15.90;90.70;;;;;;5067358;28;20407;-85
2022/03/29 10:33:24;;;;;;;17.08;14.60;;;16.10;90.20;;;;;;5069971;28;20425;-85
2022/03/29 10:36:10;;;;;;;20.98;15.75;;;16.00;89.30;;;;;;5067424;28;20464;-85
2022/03/29 10:38:48;;;;;;;17.57;14.73;;;16.20;88.80;;;;;;5065700;28;20503;-86
2022/03/29 10:41:28;;;;;;;19.83;15.13;;;16.40;89.10;;;;;;5057202;28;20387;-85
2022/03/29 10:44:04;;;;;;;18.58;14.57;;;16.50;88.90;;;;;;5050942;28;20385;-85
2022/03/29 10:46:39;;;;;;;20.95;15.52;;;16.40;88.20;;;;;;5060661;28;20441;-85
2022/03/29 10:49:34;;;;;;;20.08;14.18;;;16.60;90.10;;;;;;5048767;28;20413;-85
2022/03/29 10:52:05;;;;;;;18.23;12.80;;;16.60;86.40;;;;;;5053224;28;20383;-85
2022/03/29 10:54:37;;;;;;;19.58;14.68;;;16.60;86.10;;;;;;5047635;28;20397;-85
2022/03/29 10:57:06;;;;;;;16.70;12.95;;;16.70;86.50;;;;;;5057785;28;20385;-85
2022/03/29 10:59:36;;;;;;;16.80;14.02;;;16.70;84.80;;;;;;5067375;28;20416;-85
2022/03/29 11:02:28;;;;;;;16.37;14.10;;;16.70;85.00;;;;;;5066523;28;20884;-85
2022/03/29 11:05:12;;;;;;;17.67;14.50;;;16.70;85.60;;;;;;5048787;28;20400;-85
2022/03/29 11:07:52;;;;;;;21.70;14.20;;;16.80;87.10;;;;;;5065337;28;20400;-85
2022/03/29 11:10:20;;;;;;;68.70;16.00;;;16.70;84.40;;;;;;5057589;28;20405;-84
2022/03/29 11:12:51;;;;;;;15.67;13.40;;;16.70;86.80;;;;;;5050251;28;20485;-86
2022/03/29 11:15:35;;;;;;;16.45;14.05;;;16.70;86.90;;;;;;5042932;28;20458;-86
2022/03/29 11:18:04;;;;;;;17.55;14.90;;;16.80;88.00;;;;;;5028138;28;20390;-84
2022/03/29 11:20:39;;;;;;;48.45;15.68;;;17.00;87.50;;;;;;5061419;28;20374;-85
2022/03/29 11:23:14;;;;;;;17.88;13.98;;;16.90;88.00;;;;;;5049705;28;20375;-84
2022/03/29 11:25:48;;;;;;;18.30;14.68;;;17.00;88.00;;;;;;5052664;28;20407;-84
2022/03/29 11:28:15;;;;;;;16.80;13.57;;;16.90;86.00;;;;;;5049785;28;20436;-84
2022/03/29 11:30:41;;;;;;;17.45;13.75;;;17.00;86.50;;;;;;5056081;28;20387;-86
2022/03/29 11:33:09;;;;;;;16.15;13.40;;;17.00;85.80;;;;;;5053516;28;20482;-85
2022/03/29 11:35:36;;;;;;;15.32;13.23;;;17.10;86.20;;;;;;5047896;28;20391;-85
2022/03/29 11:38:14;;;;;;;16.43;12.90;;;17.20;84.10;;;;;;5036895;28;20455;-85
2022/03/29 11:40:41;;;;;;;18.60;13.32;;;17.30;85.60;;;;;;5029824;28;20387;-85
2022/03/29 11:43:12;;;;;;;16.17;12.37;;;17.50;83.50;;;;;;5045762;28;20486;-85
2022/03/29 11:45:49;;;;;;;15.37;12.80;;;17.60;85.00;;;;;;5064936;28;20422;-85
2022/03/29 11:48:18;;;;;;;14.75;13.05;;;17.60;83.50;;;;;;5066270;28;20385;-85
2022/03/29 11:50:55;;;;;;;15.80;12.73;;;17.50;82.80;;;;;;5080164;28;20392;-85
2022/03/29 11:53:31;;;;;;;14.70;11.95;;;17.40;83.80;;;;;;5065374;28;20873;-85
2022/03/29 11:56:06;;;;;;;20.35;14.27;;;17.50;81.80;;;;;;5067025;28;20477;-85
2022/03/29 11:58:37;;;;;;;15.85;13.43;;;17.60;83.80;;;;;;5070888;28;20402;-85
2022/03/29 12:01:10;;;;;;;16.52;13.60;;;17.70;84.90;;;;;;5072814;28;20374;-84
2022/03/29 12:04:08;;;;;;;;;;;;;;;;;;;;;
2022/03/29 12:07:03;;;;;;;14.30;12.80;;;17.80;83.70;;;;;;5065562;28;20461;-85
2022/03/29 12:09:30;;;;;;;13.83;12.13;;;18.00;82.10;;;;;;5070817;28;20392;-85
2022/03/29 12:11:59;;;;;;;18.23;14.40;;;18.00;84.60;;;;;;5048913;28;20739;-85
2022/03/29 12:14:28;;;;;;;17.13;13.73;;;18.00;81.00;;;;;;5046370;28;20395;-85
2022/03/29 12:17:07;;;;;;;16.50;14.63;;;18.10;82.80;;;;;;5072943;28;20455;-86
2022/03/29 12:19:35;;;;;;;19.63;14.65;;;18.20;82.10;;;;;;5066632;28;20405;-85
2022/03/29 12:22:11;;;;;;;17.25;13.75;;;18.30;80.70;;;;;;5060951;28;20401;-85
2022/03/29 12:24:42;;;;;;;17.50;13.35;;;18.30;81.70;;;;;;5049615;28;20376;-85
2022/03/29 12:27:17;;;;;;;14.18;12.75;;;18.40;83.00;;;;;;5053771;28;20394;-85
2022/03/29 12:29:50;;;;;;;16.02;12.00;;;18.40;82.00;;;;;;5031912;28;20406;-85
2022/03/29 12:32:23;;;;;;;15.23;13.40;;;18.30;81.90;;;;;;5042330;28;20490;-85
2022/03/29 12:34:59;;;;;;;15.57;13.38;;;18.40;81.10;;;;;;5052084;28;20406;-84
2022/03/29 12:37:27;;;;;;;17.33;13.73;;;18.50;80.10;;;;;;5051886;28;20781;-84
2022/03/29 12:39:58;;;;;;;24.60;15.80;;;18.50;82.30;;;;;;5048373;28;20406;-84
2022/03/29 12:42:28;;;;;;;29.55;17.85;;;18.50;81.40;;;;;;5064256;28;20383;-84
2022/03/29 12:44:56;;;;;;;18.53;14.67;;;18.50;81.30;;;;;;5047275;28;20433;-84
2022/03/29 12:47:24;;;;;;;14.75;13.15;;;18.50;81.30;;;;;;5048224;28;20383;-84
2022/03/29 12:49:51;;;;;;;17.08;14.57;;;18.70;80.60;;;;;;5049734;28;20900;-84
2022/03/29 12:52:18;;;;;;;23.58;15.80;;;18.70;81.70;;;;;;5048363;28;20455;-84
2022/03/29 12:55:18;;;;;;;16.55;13.50;;;18.80;80.20;;;;;;5031446;28;20402;-84
2022/03/29 12:57:45;;;;;;;16.40;14.38;;;18.70;79.80;;;;;;5037861;28;20411;-87